createdAt,value
2023-05-05T00:02:46.634Z,2.20
2023-05-05T00:05:34.066Z,1.90
2023-05-05T00:08:21.836Z,1.90
2023-05-05T00:11:10.141Z,2.13
2023-05-05T00:13:57.516Z,2.00
2023-05-05T00:16:44.949Z,2.27
2023-05-05T00:19:32.364Z,2.10
2023-05-05T00:22:19.725Z,2.10
2023-05-05T00:25:07.288Z,2.07
2023-05-05T00:27:54.700Z,1.77
2023-05-05T00:30:42.098Z,2.10
2023-05-05T00:33:29.470Z,2.10
2023-05-05T00:36:16.814Z,2.40
2023-05-05T00:39:04.441Z,2.30
2023-05-05T00:41:51.858Z,2.20
2023-05-05T00:44:40.305Z,2.10
2023-05-05T00:47:27.731Z,1.90
2023-05-05T00:50:22.643Z,2.73
2023-05-05T00:53:10.063Z,2.43
2023-05-05T00:55:57.624Z,2.47
2023-05-05T00:58:45.152Z,2.27
2023-05-05T01:01:32.605Z,2.30
2023-05-05T01:04:19.961Z,2.43
2023-05-05T01:07:10.347Z,2.40
2023-05-05T01:10:11.010Z,2.20
2023-05-05T01:13:05.056Z,2.27
2023-05-05T01:15:58.601Z,2.27
2023-05-05T01:18:58.926Z,2.20
2023-05-05T01:21:54.187Z,2.30
2023-05-05T01:24:53.552Z,2.60
2023-05-05T01:27:59.707Z,2.27
2023-05-05T01:31:05.726Z,2.53
2023-05-05T01:33:59.088Z,2.70
2023-05-05T01:36:48.355Z,2.80
2023-05-05T01:39:37.455Z,2.60
2023-05-05T01:42:25.821Z,2.80
2023-05-05T01:45:15.117Z,2.53
2023-05-05T01:48:02.788Z,2.47
2023-05-05T01:50:50.857Z,2.60
2023-05-05T01:53:39.159Z,2.67
2023-05-05T01:56:26.910Z,2.47
2023-05-05T01:59:14.335Z,2.60
2023-05-05T02:02:02.875Z,3.33
2023-05-05T02:04:51.830Z,2.30
2023-05-05T02:07:39.909Z,2.70
2023-05-05T02:10:28.382Z,2.50
2023-05-05T02:13:16.501Z,2.40
2023-05-05T02:16:05.377Z,2.77
2023-05-05T02:18:54.539Z,3.00
2023-05-05T02:21:42.334Z,2.90
2023-05-05T02:24:29.753Z,3.23
2023-05-05T02:27:18.885Z,2.77
2023-05-05T02:30:09.033Z,3.00
2023-05-05T02:33:01.087Z,2.87
2023-05-05T02:35:50.482Z,2.87
2023-05-05T02:38:41.068Z,3.40
2023-05-05T02:41:29.518Z,3.37
2023-05-05T02:44:17.456Z,3.37
2023-05-05T02:47:05.033Z,4.07
2023-05-05T02:49:52.417Z,4.30
2023-05-05T02:52:40.438Z,4.47
2023-05-05T02:55:31.065Z,4.53
2023-05-05T02:58:24.200Z,4.73
2023-05-05T03:01:16.049Z,4.57
2023-05-05T03:04:13.275Z,5.20
2023-05-05T03:07:04.136Z,4.73
2023-05-05T03:09:56.446Z,4.60
2023-05-05T03:12:49.391Z,5.93
2023-05-05T03:15:38.350Z,5.73
2023-05-05T03:18:26.190Z,6.03
2023-05-05T03:21:14.114Z,5.97
2023-05-05T03:24:02.434Z,6.93
2023-05-05T03:26:50.241Z,6.80
2023-05-05T03:29:37.676Z,5.53
2023-05-05T03:32:25.297Z,6.00
2023-05-05T03:35:12.667Z,6.20
2023-05-05T03:38:00.068Z,6.47
2023-05-05T03:40:47.409Z,6.63
2023-05-05T03:43:34.790Z,5.87
2023-05-05T03:46:22.165Z,6.80
2023-05-05T03:49:09.794Z,6.97
2023-05-05T03:51:57.169Z,6.43
2023-05-05T03:54:45.987Z,6.57
2023-05-05T03:57:34.311Z,6.83
2023-05-05T04:00:21.840Z,7.03
2023-05-05T04:03:09.426Z,6.67
2023-05-05T04:05:56.861Z,6.60
2023-05-05T04:08:44.242Z,7.13
2023-05-05T04:11:31.597Z,6.27
2023-05-05T04:14:18.920Z,6.90
2023-05-05T04:17:06.412Z,7.33
2023-05-05T04:19:53.896Z,7.17
2023-05-05T04:22:41.331Z,6.43
2023-05-05T04:25:29.280Z,6.67
2023-05-05T04:28:16.701Z,6.07
2023-05-05T04:31:05.143Z,6.30
2023-05-05T04:33:52.680Z,6.70
2023-05-05T04:36:40.050Z,7.30
2023-05-05T04:39:27.399Z,5.77
2023-05-05T04:42:14.799Z,7.97
2023-05-05T04:45:02.125Z,6.23
2023-05-05T04:47:49.677Z,6.10
2023-05-05T04:50:37.051Z,7.40
2023-05-05T04:53:24.795Z,6.43
2023-05-05T04:56:12.198Z,5.87
2023-05-05T04:58:59.572Z,6.33
2023-05-05T05:01:47.058Z,5.97
2023-05-05T05:04:34.485Z,6.43
2023-05-05T05:07:21.841Z,5.73
2023-05-05T05:10:09.688Z,6.33
2023-05-05T05:12:57.292Z,6.27
2023-05-05T05:15:44.694Z,5.97
2023-05-05T05:18:32.096Z,6.00
2023-05-05T05:21:19.474Z,5.33
2023-05-05T05:24:06.861Z,5.53
2023-05-05T05:26:54.218Z,6.07
2023-05-05T05:29:41.654Z,5.40
2023-05-05T05:32:29.231Z,5.50
2023-05-05T05:35:16.792Z,5.60
2023-05-05T05:38:04.232Z,5.43
2023-05-05T05:40:51.704Z,5.90
2023-05-05T05:43:39.085Z,5.97
2023-05-05T05:46:26.428Z,5.70
2023-05-05T05:49:13.806Z,5.93
2023-05-05T05:52:01.746Z,5.63
2023-05-05T05:54:49.140Z,5.07
2023-05-05T05:57:36.520Z,5.33
2023-05-05T06:00:24.025Z,4.80
2023-05-05T06:03:11.923Z,4.73
2023-05-05T06:05:59.386Z,4.77
2023-05-05T06:08:46.731Z,4.47
2023-05-05T06:11:35.055Z,5.27
2023-05-05T06:14:22.441Z,4.13
2023-05-05T06:17:09.826Z,4.73
2023-05-05T06:19:57.190Z,4.90
2023-05-05T06:22:44.592Z,4.40
2023-05-05T06:25:31.994Z,4.90
2023-05-05T06:28:19.377Z,4.57
2023-05-05T06:31:06.745Z,4.60
2023-05-05T06:33:54.119Z,5.13
2023-05-05T06:36:41.617Z,5.03
2023-05-05T06:39:29.206Z,4.20
2023-05-05T06:42:16.566Z,4.20
2023-05-05T06:45:04.060Z,3.60
2023-05-05T06:47:52.397Z,4.23
2023-05-05T06:50:39.880Z,4.07
2023-05-05T06:53:27.279Z,4.27
2023-05-05T06:56:14.633Z,4.00
2023-05-05T06:59:01.989Z,3.73
2023-05-05T07:01:49.402Z,3.83
2023-05-05T07:04:37.102Z,3.37
2023-05-05T07:07:24.548Z,4.30
2023-05-05T07:10:11.955Z,3.90
2023-05-05T07:12:59.340Z,3.40
2023-05-05T07:15:46.861Z,3.60
2023-05-05T07:18:34.878Z,3.87
2023-05-05T07:21:22.213Z,3.57
2023-05-05T07:24:09.594Z,3.73
2023-05-05T07:26:57.368Z,4.00
2023-05-05T07:29:44.750Z,3.40
2023-05-05T07:32:32.173Z,3.73
2023-05-05T07:35:19.591Z,3.47
2023-05-05T07:38:08.669Z,3.10
2023-05-05T07:40:56.813Z,4.10
2023-05-05T07:43:44.741Z,3.60
2023-05-05T07:46:32.402Z,3.70
2023-05-05T07:49:20.660Z,3.53
2023-05-05T07:52:08.029Z,3.70
2023-05-05T07:54:55.535Z,4.20
2023-05-05T07:57:42.932Z,3.60
2023-05-05T08:00:30.558Z,3.50
2023-05-05T08:03:20.524Z,4.10
2023-05-05T08:06:11.821Z,3.43
2023-05-05T08:09:01.987Z,4.20
2023-05-05T08:11:49.372Z,3.40
2023-05-05T08:14:36.926Z,3.43
2023-05-05T08:17:26.178Z,4.17
2023-05-05T08:20:14.023Z,3.40
2023-05-05T08:23:01.655Z,4.13
2023-05-05T08:25:49.022Z,3.63
2023-05-05T08:28:37.278Z,3.47
2023-05-05T08:31:24.804Z,3.90
2023-05-05T08:34:12.172Z,3.90
2023-05-05T08:36:59.558Z,3.70
2023-05-05T08:39:46.916Z,3.97
2023-05-05T08:42:38.712Z,3.67
2023-05-05T08:45:26.905Z,3.63
2023-05-05T08:48:16.384Z,3.90
2023-05-05T08:51:05.790Z,3.93
2023-05-05T08:54:13.484Z,3.30
2023-05-05T08:57:02.584Z,3.20
2023-05-05T08:59:50.432Z,3.77
2023-05-05T09:02:38.341Z,3.87
2023-05-05T09:05:26.223Z,3.50
2023-05-05T09:08:13.828Z,3.63
2023-05-05T09:11:02.220Z,3.40
2023-05-05T09:16:54.797Z,4.17
2023-05-05T09:20:17.702Z,3.88
2023-05-05T09:23:11.952Z,3.80
2023-05-05T09:26:05.948Z,3.97
2023-05-05T09:28:53.398Z,3.30
2023-05-05T09:31:40.931Z,3.47
2023-05-05T09:34:28.282Z,3.70
2023-05-05T09:37:27.340Z,3.80
2023-05-05T09:40:15.659Z,3.80
2023-05-05T09:43:03.080Z,3.22
2023-05-05T09:45:50.797Z,3.67
2023-05-05T09:48:38.170Z,3.70
2023-05-05T09:51:34.310Z,4.40
2023-05-05T09:54:32.633Z,3.67
2023-05-05T09:57:30.374Z,3.63
2023-05-05T10:00:17.986Z,3.80
2023-05-05T10:03:05.437Z,4.00
2023-05-05T10:05:54.042Z,3.75
2023-05-05T10:08:41.577Z,3.75
2023-05-05T10:11:29.018Z,3.83
2023-05-05T10:14:17.784Z,3.47
2023-05-05T10:17:06.445Z,3.40
2023-05-05T10:19:57.558Z,3.97
2023-05-05T10:22:53.853Z,3.72
2023-05-05T10:25:47.263Z,3.90
2023-05-05T10:29:01.562Z,3.80
2023-05-05T10:31:53.424Z,3.83
2023-05-05T10:34:51.456Z,4.13
2023-05-05T10:37:39.288Z,3.42
2023-05-05T10:40:26.769Z,3.57
2023-05-05T10:43:17.471Z,3.30
2023-05-05T10:46:05.130Z,3.40
2023-05-05T10:48:59.743Z,4.03
2023-05-05T10:51:50.858Z,3.47
2023-05-05T10:54:44.404Z,3.50
2023-05-05T10:57:33.342Z,3.90
2023-05-05T11:00:53.243Z,3.80
2023-05-05T11:03:40.735Z,3.30
2023-05-05T11:06:28.615Z,3.67
2023-05-05T11:09:42.639Z,3.77
2023-05-05T11:12:30.747Z,3.72
2023-05-05T11:15:27.151Z,3.70
2023-05-05T11:18:30.892Z,3.25
2023-05-05T11:21:18.616Z,3.47
2023-05-05T11:24:24.623Z,4.00
2023-05-05T11:27:12.047Z,3.83
2023-05-05T11:30:09.073Z,3.20
2023-05-05T11:33:15.078Z,3.28
2023-05-05T11:36:06.038Z,3.90
2023-05-05T11:39:00.214Z,3.72
2023-05-05T11:42:15.751Z,3.45
2023-05-05T11:45:03.346Z,3.40
2023-05-05T11:47:50.888Z,3.13
2023-05-05T11:50:38.397Z,3.50
2023-05-05T11:53:25.986Z,3.45
2023-05-05T11:56:21.796Z,3.28
2023-05-05T11:59:10.194Z,3.72
2023-05-05T12:01:57.610Z,3.03
2023-05-05T12:04:45.345Z,3.70
2023-05-05T12:07:33.569Z,3.35
2023-05-05T12:10:24.102Z,3.70
2023-05-05T12:13:20.872Z,3.63
2023-05-05T12:16:11.173Z,3.50
2023-05-05T12:19:05.818Z,3.45
2023-05-05T12:21:54.170Z,3.60
2023-05-05T12:24:41.607Z,4.10
2023-05-05T12:27:29.286Z,4.07
2023-05-05T12:30:17.810Z,3.85
2023-05-05T12:33:06.632Z,3.63
2023-05-05T12:35:54.203Z,3.35
2023-05-05T12:38:42.057Z,3.65
2023-05-05T12:41:29.463Z,3.40
2023-05-05T12:44:16.817Z,3.47
2023-05-05T12:47:04.740Z,3.40
2023-05-05T12:49:52.575Z,3.90
2023-05-05T12:52:46.483Z,3.92
2023-05-05T12:55:37.495Z,3.53
2023-05-05T12:58:25.114Z,3.88
2023-05-05T13:01:12.493Z,3.58
2023-05-05T13:04:06.280Z,3.60
2023-05-05T13:07:11.105Z,3.47
2023-05-05T13:10:09.519Z,3.60
2023-05-05T13:12:57.732Z,3.80
2023-05-05T13:15:45.277Z,3.70
2023-05-05T13:18:32.657Z,3.53
2023-05-05T13:21:20.083Z,3.30
2023-05-05T13:26:57.778Z,3.60
2023-05-05T13:29:45.296Z,3.77
2023-05-05T13:32:32.759Z,3.53
2023-05-05T13:35:20.294Z,3.50
2023-05-05T13:38:07.733Z,3.33
2023-05-05T13:40:55.076Z,3.33
2023-05-05T13:43:42.407Z,3.23
2023-05-05T13:46:29.874Z,3.63
2023-05-05T13:49:17.936Z,4.00
2023-05-05T13:52:05.914Z,3.20
2023-05-05T13:54:53.472Z,3.80
2023-05-05T13:57:40.941Z,3.43
2023-05-05T14:00:28.809Z,3.30
2023-05-05T14:03:16.273Z,3.47
2023-05-05T14:06:03.639Z,3.57
2023-05-05T14:08:51.606Z,3.77
2023-05-05T14:11:39.006Z,3.47
2023-05-05T14:14:26.357Z,3.27
2023-05-05T14:17:13.720Z,3.20
2023-05-05T14:20:01.095Z,3.47
2023-05-05T14:22:49.390Z,3.70
2023-05-05T14:25:36.988Z,3.13
2023-05-05T14:28:24.375Z,3.40
2023-05-05T14:31:11.933Z,3.47
2023-05-05T14:33:59.317Z,3.20
2023-05-05T14:36:46.760Z,3.30
2023-05-05T14:39:34.121Z,3.73
2023-05-05T14:42:21.651Z,3.50
2023-05-05T14:45:10.962Z,3.70
2023-05-05T14:47:58.358Z,3.67
2023-05-05T14:50:46.286Z,3.77
2023-05-05T14:53:34.688Z,3.77
2023-05-05T14:56:22.759Z,4.37
2023-05-05T14:59:10.241Z,3.80
2023-05-05T15:01:57.688Z,3.43
2023-05-05T15:04:45.264Z,3.37
2023-05-05T15:07:32.665Z,4.00
2023-05-05T15:10:21.971Z,3.43
2023-05-05T15:13:09.644Z,3.80
2023-05-05T15:15:58.311Z,3.67
2023-05-05T15:18:45.928Z,3.30
2023-05-05T15:21:33.517Z,3.70
2023-05-05T15:24:21.736Z,4.00
2023-05-05T15:27:09.156Z,4.13
2023-05-05T15:29:56.546Z,4.40
2023-05-05T15:32:43.891Z,3.70
2023-05-05T15:35:31.281Z,4.00
2023-05-05T15:38:18.691Z,3.40
2023-05-05T15:41:07.141Z,3.77
2023-05-05T15:43:54.469Z,4.33
2023-05-05T15:46:41.937Z,4.13
2023-05-05T15:49:29.302Z,3.67
2023-05-05T15:52:16.915Z,3.70
2023-05-05T15:55:04.404Z,3.73
2023-05-05T15:57:51.912Z,4.10
2023-05-05T16:00:39.385Z,3.33
2023-05-05T16:03:26.827Z,3.37
2023-05-05T16:06:14.373Z,3.27
2023-05-05T16:09:01.878Z,3.63
2023-05-05T16:11:49.247Z,3.27
2023-05-05T16:14:36.610Z,3.50
2023-05-05T16:17:23.974Z,3.90
2023-05-05T16:20:11.749Z,3.10
2023-05-05T16:22:59.094Z,3.80
2023-05-05T16:25:46.542Z,3.63
2023-05-05T16:28:34.322Z,3.87
2023-05-05T16:31:21.772Z,3.90
2023-05-05T16:34:09.213Z,3.87
2023-05-05T16:36:56.661Z,3.70
2023-05-05T16:39:44.043Z,4.00
2023-05-05T16:42:31.445Z,3.57
2023-05-05T16:45:18.818Z,3.30
2023-05-05T16:48:08.929Z,3.50
2023-05-05T16:50:57.716Z,4.30
2023-05-05T16:56:32.415Z,4.10
2023-05-05T16:59:19.867Z,4.23
2023-05-05T17:02:07.269Z,4.23
2023-05-05T17:04:54.739Z,4.00
2023-05-05T17:07:42.217Z,3.97
2023-05-05T17:10:29.551Z,3.10
2023-05-05T17:13:17.065Z,3.53
2023-05-05T17:16:04.563Z,3.27
2023-05-05T17:18:53.931Z,3.20
2023-05-05T17:21:42.763Z,3.13
2023-05-05T17:24:30.145Z,3.13
2023-05-05T17:27:17.681Z,3.03
2023-05-05T17:30:05.407Z,3.17
2023-05-05T17:32:53.030Z,3.30
2023-05-05T17:35:40.514Z,3.53
2023-05-05T17:38:27.927Z,3.53
2023-05-05T17:41:15.442Z,3.07
2023-05-05T17:44:02.780Z,2.90
2023-05-05T17:46:50.548Z,2.70
2023-05-05T17:49:37.938Z,3.50
2023-05-05T17:52:26.007Z,3.33
2023-05-05T17:55:13.405Z,3.13
2023-05-05T17:58:00.828Z,3.30
2023-05-05T18:00:48.160Z,3.70
2023-05-05T18:03:36.392Z,3.77
2023-05-05T18:06:24.625Z,2.90
2023-05-05T18:09:12.182Z,3.33
2023-05-05T18:11:59.504Z,3.30
2023-05-05T18:14:46.924Z,2.83
2023-05-05T18:17:34.352Z,3.30
2023-05-05T18:20:21.709Z,3.00
2023-05-05T18:23:09.034Z,3.97
2023-05-05T18:25:56.408Z,3.63
2023-05-05T18:28:43.795Z,4.00
2023-05-05T18:31:31.205Z,3.33
2023-05-05T18:34:18.863Z,3.20
2023-05-05T18:37:06.590Z,3.30
2023-05-05T18:39:53.918Z,3.67
2023-05-05T18:42:41.570Z,3.20
2023-05-05T18:45:28.980Z,3.23
2023-05-05T18:48:16.436Z,4.00
2023-05-05T18:51:04.321Z,3.77
2023-05-05T18:53:51.742Z,3.40
2023-05-05T18:56:39.162Z,3.37
2023-05-05T18:59:27.254Z,4.10
2023-05-05T19:02:14.795Z,3.73
2023-05-05T19:05:02.236Z,3.50
2023-05-05T19:07:49.591Z,3.87
2023-05-05T19:10:37.429Z,3.30
2023-05-05T19:13:24.796Z,3.50
2023-05-05T19:16:12.217Z,3.60
2023-05-05T19:19:00.701Z,3.80
2023-05-05T19:21:48.128Z,3.53
2023-05-05T19:24:35.656Z,4.47
2023-05-05T19:27:23.043Z,3.87
2023-05-05T19:30:10.698Z,3.43
2023-05-05T19:32:58.145Z,3.67
2023-05-05T19:35:45.736Z,3.57
2023-05-05T19:38:33.094Z,4.17
2023-05-05T19:41:20.817Z,3.57
2023-05-05T19:44:08.244Z,3.80
2023-05-05T19:46:55.618Z,3.67
2023-05-05T19:49:42.958Z,3.97
2023-05-05T19:52:30.378Z,3.90
2023-05-05T19:55:17.737Z,3.73
2023-05-05T19:58:05.106Z,4.00
2023-05-05T20:00:52.436Z,3.47
2023-05-05T20:03:39.843Z,3.80
2023-05-05T20:06:27.242Z,4.57
2023-05-05T20:09:14.950Z,3.97
2023-05-05T20:12:02.369Z,3.60
2023-05-05T20:14:50.032Z,4.00
2023-05-05T20:17:37.416Z,4.07
2023-05-05T20:20:25.378Z,4.23
2023-05-05T20:23:13.205Z,3.87
2023-05-05T20:26:00.593Z,4.00
2023-05-05T20:28:47.961Z,3.93
2023-05-05T20:31:35.485Z,3.17
2023-05-05T20:34:24.922Z,3.50
2023-05-05T20:37:13.758Z,4.30
2023-05-05T20:40:04.188Z,4.37
2023-05-05T20:42:51.607Z,3.40
2023-05-05T20:45:39.029Z,4.60
2023-05-05T20:48:26.364Z,4.80
2023-05-05T20:51:13.701Z,4.40
2023-05-05T20:54:01.469Z,3.80
2023-05-05T20:56:48.845Z,3.97
2023-05-05T20:59:36.173Z,4.10
2023-05-05T21:02:23.729Z,3.57
2023-05-05T21:05:11.723Z,4.30
2023-05-05T21:08:00.806Z,3.83
2023-05-05T21:10:48.717Z,3.50
2023-05-05T21:13:36.328Z,3.77
2023-05-05T21:16:23.720Z,3.77
2023-05-05T21:19:11.133Z,4.53
2023-05-05T21:21:59.070Z,3.57
2023-05-05T21:24:46.685Z,4.03
2023-05-05T21:27:34.021Z,3.87
2023-05-05T21:30:23.273Z,3.57
2023-05-05T21:33:10.907Z,4.57
2023-05-05T21:35:58.312Z,3.70
2023-05-05T21:38:45.919Z,3.90
2023-05-05T21:41:33.300Z,4.60
2023-05-05T21:44:20.958Z,4.90
2023-05-05T21:47:08.425Z,4.37
2023-05-05T21:49:55.786Z,3.93
2023-05-05T21:52:43.164Z,4.47
2023-05-05T21:55:30.564Z,3.97
2023-05-05T21:58:17.943Z,4.00
2023-05-05T22:01:05.547Z,4.10
2023-05-05T22:03:53.042Z,4.07
2023-05-05T22:06:40.828Z,4.20
2023-05-05T22:09:28.227Z,4.33
2023-05-05T22:12:16.225Z,4.20
2023-05-05T22:15:03.628Z,4.07
2023-05-05T22:17:50.989Z,4.00
2023-05-05T22:20:38.787Z,4.17
2023-05-05T22:23:26.139Z,4.13
2023-05-05T22:26:13.519Z,3.83
2023-05-05T22:29:00.969Z,4.00
2023-05-05T22:31:48.493Z,4.10
2023-05-05T22:34:35.933Z,4.57
2023-05-05T22:37:23.446Z,4.40
2023-05-05T22:40:12.765Z,4.03
2023-05-05T22:43:00.303Z,3.77
2023-05-05T22:45:47.766Z,4.03
2023-05-05T22:48:35.762Z,3.80
2023-05-05T22:51:23.402Z,4.23
2023-05-05T22:54:10.920Z,4.00
2023-05-05T22:56:58.271Z,4.43
2023-05-05T22:59:45.746Z,4.50
2023-05-05T23:02:33.157Z,4.23
2023-05-05T23:05:20.655Z,4.07
2023-05-05T23:08:08.198Z,3.90
2023-05-05T23:10:56.330Z,3.73
2023-05-05T23:13:43.691Z,4.37
2023-05-05T23:16:31.124Z,3.97
2023-05-05T23:19:18.495Z,4.20
2023-05-05T23:22:05.852Z,4.10
2023-05-05T23:24:53.788Z,3.93
2023-05-05T23:27:41.298Z,4.50
2023-05-05T23:30:29.167Z,4.37
2023-05-05T23:33:16.556Z,3.67
2023-05-05T23:36:04.011Z,4.00
2023-05-05T23:38:51.383Z,3.80
2023-05-05T23:41:38.754Z,4.07
2023-05-05T23:44:26.167Z,4.20
2023-05-05T23:47:13.558Z,4.63
2023-05-05T23:50:00.987Z,4.00
2023-05-05T23:52:48.365Z,4.10
2023-05-05T23:55:35.751Z,4.83
2023-05-05T23:58:23.145Z,4.30
